sensor_id;sensor_type;location;lat;lon;timestamp;temperature;humidity
46085;DHT22;31823;47.032;8.310;2022-09-14T00:01:13;17.60;99.90
46085;DHT22;31823;47.032;8.310;2022-09-14T00:03:40;17.60;99.90
46085;DHT22;31823;47.032;8.310;2022-09-14T00:06:07;17.60;99.90
46085;DHT22;31823;47.032;8.310;2022-09-14T00:08:34;17.60;99.90
46085;DHT22;31823;47.032;8.310;2022-09-14T00:11:07;17.80;99.90
46085;DHT22;31823;47.032;8.310;2022-09-14T00:13:34;17.80;99.90
46085;DHT22;31823;47.032;8.310;2022-09-14T00:16:05;17.70;99.90
46085;DHT22;31823;47.032;8.310;2022-09-14T00:18:33;17.70;99.90
46085;DHT22;31823;47.032;8.310;2022-09-14T00:21:05;17.70;99.90
46085;DHT22;31823;47.032;8.310;2022-09-14T00:23:32;17.70;99.90
46085;DHT22;31823;47.032;8.310;2022-09-14T00:26:13;17.70;99.90
46085;DHT22;31823;47.032;8.310;2022-09-14T00:28:45;17.70;99.90
46085;DHT22;31823;47.032;8.310;2022-09-14T00:31:11;17.70;99.90
46085;DHT22;31823;47.032;8.310;2022-09-14T00:33:39;17.70;99.90
46085;DHT22;31823;47.032;8.310;2022-09-14T00:38:34;17.60;99.90
46085;DHT22;31823;47.032;8.310;2022-09-14T00:41:01;17.60;99.90
46085;DHT22;31823;47.032;8.310;2022-09-14T00:43:27;17.60;99.90
46085;DHT22;31823;47.032;8.310;2022-09-14T00:45:52;17.60;99.90
46085;DHT22;31823;47.032;8.310;2022-09-14T00:48:19;17.70;99.90
46085;DHT22;31823;47.032;8.310;2022-09-14T00:50:45;17.70;99.90
46085;DHT22;31823;47.032;8.310;2022-09-14T00:53:11;17.80;99.90
46085;DHT22;31823;47.032;8.310;2022-09-14T00:55:36;17.70;99.90
46085;DHT22;31823;47.032;8.310;2022-09-14T00:58:02;17.70;99.90
46085;DHT22;31823;47.032;8.310;2022-09-14T01:00:29;17.80;99.90
46085;DHT22;31823;47.032;8.310;2022-09-14T01:02:56;17.80;99.90
46085;DHT22;31823;47.032;8.310;2022-09-14T01:05:33;17.80;99.90
46085;DHT22;31823;47.032;8.310;2022-09-14T01:21:32;17.60;99.90
46085;DHT22;31823;47.032;8.310;2022-09-14T01:32:19;17.60;99.90
46085;DHT22;31823;47.032;8.310;2022-09-14T01:34:56;17.60;99.90
46085;DHT22;31823;47.032;8.310;2022-09-14T01:37:29;17.60;99.90
46085;DHT22;31823;47.032;8.310;2022-09-14T01:40:04;17.50;99.90
46085;DHT22;31823;47.032;8.310;2022-09-14T01:42:31;17.50;99.90
46085;DHT22;31823;47.032;8.310;2022-09-14T01:45:01;17.60;99.90
46085;DHT22;31823;47.032;8.310;2022-09-14T01:47:46;17.70;99.90
46085;DHT22;31823;47.032;8.310;2022-09-14T01:50:20;17.60;99.90
46085;DHT22;31823;47.032;8.310;2022-09-14T01:53:11;17.60;99.90
46085;DHT22;31823;47.032;8.310;2022-09-14T01:55:43;17.60;99.90
46085;DHT22;31823;47.032;8.310;2022-09-14T01:58:20;17.50;99.90
46085;DHT22;31823;47.032;8.310;2022-09-14T02:00:52;17.50;99.90
46085;DHT22;31823;47.032;8.310;2022-09-14T02:03:21;17.50;99.90
46085;DHT22;31823;47.032;8.310;2022-09-14T02:08:20;17.40;99.90
46085;DHT22;31823;47.032;8.310;2022-09-14T02:10:45;17.40;99.90
46085;DHT22;31823;47.032;8.310;2022-09-14T02:13:11;17.50;99.90
46085;DHT22;31823;47.032;8.310;2022-09-14T02:15:37;17.40;99.90
46085;DHT22;31823;47.032;8.310;2022-09-14T02:18:04;17.40;99.90
46085;DHT22;31823;47.032;8.310;2022-09-14T02:20:53;17.40;99.90
46085;DHT22;31823;47.032;8.310;2022-09-14T02:23:20;17.40;99.90
46085;DHT22;31823;47.032;8.310;2022-09-14T02:25:46;17.30;99.90
46085;DHT22;31823;47.032;8.310;2022-09-14T02:28:12;17.30;99.90
46085;DHT22;31823;47.032;8.310;2022-09-14T02:30:57;17.30;99.90
46085;DHT22;31823;47.032;8.310;2022-09-14T02:33:39;17.40;99.90
46085;DHT22;31823;47.032;8.310;2022-09-14T02:50:19;17.80;99.90
46085;DHT22;31823;47.032;8.310;2022-09-14T02:53:08;17.50;99.90
46085;DHT22;31823;47.032;8.310;2022-09-14T02:55:37;17.30;99.90
46085;DHT22;31823;47.032;8.310;2022-09-14T02:58:09;17.30;99.90
46085;DHT22;31823;47.032;8.310;2022-09-14T03:00:38;17.30;99.90
46085;DHT22;31823;47.032;8.310;2022-09-14T03:03:06;17.20;99.90
46085;DHT22;31823;47.032;8.310;2022-09-14T03:05:32;17.20;99.90
46085;DHT22;31823;47.032;8.310;2022-09-14T03:07:59;17.10;99.90
46085;DHT22;31823;47.032;8.310;2022-09-14T03:10:25;17.20;99.90
46085;DHT22;31823;47.032;8.310;2022-09-14T03:12:52;17.20;99.90
46085;DHT22;31823;47.032;8.310;2022-09-14T03:15:17;17.20;99.90
46085;DHT22;31823;47.032;8.310;2022-09-14T03:17:47;17.10;99.90
46085;DHT22;31823;47.032;8.310;2022-09-14T03:20:19;17.10;99.90
46085;DHT22;31823;47.032;8.310;2022-09-14T03:22:46;17.00;99.90
46085;DHT22;31823;47.032;8.310;2022-09-14T03:25:12;16.90;99.90
46085;DHT22;31823;47.032;8.310;2022-09-14T03:27:38;17.00;99.90
46085;DHT22;31823;47.032;8.310;2022-09-14T03:30:05;16.90;99.90
46085;DHT22;31823;47.032;8.310;2022-09-14T03:32:32;16.80;99.90
46085;DHT22;31823;47.032;8.310;2022-09-14T03:34:58;16.90;99.90
46085;DHT22;31823;47.032;8.310;2022-09-14T03:37:24;16.80;99.90
46085;DHT22;31823;47.032;8.310;2022-09-14T03:39:50;16.80;99.90
46085;DHT22;31823;47.032;8.310;2022-09-14T03:42:15;16.80;99.90
46085;DHT22;31823;47.032;8.310;2022-09-14T03:44:41;16.80;99.90
46085;DHT22;31823;47.032;8.310;2022-09-14T03:47:07;16.80;99.90
46085;DHT22;31823;47.032;8.310;2022-09-14T03:49:33;16.90;99.90
46085;DHT22;31823;47.032;8.310;2022-09-14T03:51:59;16.90;99.90
46085;DHT22;31823;47.032;8.310;2022-09-14T03:54:25;16.90;99.90
46085;DHT22;31823;47.032;8.310;2022-09-14T03:56:52;16.80;99.90
46085;DHT22;31823;47.032;8.310;2022-09-14T03:59:18;16.90;99.90
46085;DHT22;31823;47.032;8.310;2022-09-14T04:01:44;16.80;99.90
46085;DHT22;31823;47.032;8.310;2022-09-14T04:04:10;16.80;99.90
46085;DHT22;31823;47.032;8.310;2022-09-14T04:06:36;16.70;99.90
46085;DHT22;31823;47.032;8.310;2022-09-14T04:09:02;16.80;99.90
46085;DHT22;31823;47.032;8.310;2022-09-14T04:11:28;16.80;99.90
46085;DHT22;31823;47.032;8.310;2022-09-14T04:14:03;16.80;99.90
46085;DHT22;31823;47.032;8.310;2022-09-14T04:16:29;16.80;99.90
46085;DHT22;31823;47.032;8.310;2022-09-14T04:18:55;16.80;99.90
46085;DHT22;31823;47.032;8.310;2022-09-14T04:21:22;16.70;99.90
46085;DHT22;31823;47.032;8.310;2022-09-14T04:23:52;16.80;99.90
46085;DHT22;31823;47.032;8.310;2022-09-14T04:26:19;16.80;99.90
46085;DHT22;31823;47.032;8.310;2022-09-14T04:28:45;16.70;99.90
46085;DHT22;31823;47.032;8.310;2022-09-14T04:31:12;16.60;99.90
46085;DHT22;31823;47.032;8.310;2022-09-14T04:33:40;16.60;99.90
46085;DHT22;31823;47.032;8.310;2022-09-14T04:36:11;16.60;99.90
46085;DHT22;31823;47.032;8.310;2022-09-14T04:38:38;16.60;99.90
46085;DHT22;31823;47.032;8.310;2022-09-14T04:41:06;16.60;99.90
46085;DHT22;31823;47.032;8.310;2022-09-14T04:43:31;16.70;99.90
46085;DHT22;31823;47.032;8.310;2022-09-14T04:46:04;16.60;99.90
46085;DHT22;31823;47.032;8.310;2022-09-14T04:48:32;16.60;99.90
46085;DHT22;31823;47.032;8.310;2022-09-14T04:51:05;16.60;99.90
46085;DHT22;31823;47.032;8.310;2022-09-14T04:53:37;16.40;99.90
46085;DHT22;31823;47.032;8.310;2022-09-14T04:56:08;16.40;99.90
46085;DHT22;31823;47.032;8.310;2022-09-14T04:58:36;16.40;99.90
46085;DHT22;31823;47.032;8.310;2022-09-14T05:01:06;16.40;99.90
46085;DHT22;31823;47.032;8.310;2022-09-14T05:03:33;16.50;99.90
46085;DHT22;31823;47.032;8.310;2022-09-14T05:06:03;16.50;99.90
46085;DHT22;31823;47.032;8.310;2022-09-14T05:08:29;16.50;99.90
46085;DHT22;31823;47.032;8.310;2022-09-14T05:10:56;16.40;99.90
46085;DHT22;31823;47.032;8.310;2022-09-14T05:13:21;16.50;99.90
46085;DHT22;31823;47.032;8.310;2022-09-14T05:15:48;16.50;99.90
46085;DHT22;31823;47.032;8.310;2022-09-14T05:18:14;16.50;99.90
46085;DHT22;31823;47.032;8.310;2022-09-14T05:20:40;16.50;99.90
46085;DHT22;31823;47.032;8.310;2022-09-14T05:23:06;16.60;99.90
46085;DHT22;31823;47.032;8.310;2022-09-14T05:25:31;16.60;99.90
46085;DHT22;31823;47.032;8.310;2022-09-14T05:27:57;16.60;99.90
46085;DHT22;31823;47.032;8.310;2022-09-14T05:30:22;16.70;99.90
46085;DHT22;31823;47.032;8.310;2022-09-14T05:32:48;16.70;99.90
46085;DHT22;31823;47.032;8.310;2022-09-14T05:35:14;16.70;99.90
46085;DHT22;31823;47.032;8.310;2022-09-14T05:37:39;16.60;99.90
46085;DHT22;31823;47.032;8.310;2022-09-14T05:40:05;16.70;99.90
46085;DHT22;31823;47.032;8.310;2022-09-14T05:42:33;16.60;99.90
46085;DHT22;31823;47.032;8.310;2022-09-14T05:44:58;16.70;99.90
46085;DHT22;31823;47.032;8.310;2022-09-14T05:47:24;16.70;99.90
46085;DHT22;31823;47.032;8.310;2022-09-14T05:49:50;16.70;99.90
46085;DHT22;31823;47.032;8.310;2022-09-14T05:52:15;16.60;99.90
46085;DHT22;31823;47.032;8.310;2022-09-14T05:54:41;16.60;99.90
46085;DHT22;31823;47.032;8.310;2022-09-14T05:57:07;16.60;99.90
46085;DHT22;31823;47.032;8.310;2022-09-14T05:59:32;16.60;99.90
46085;DHT22;31823;47.032;8.310;2022-09-14T06:01:58;16.70;99.90
46085;DHT22;31823;47.032;8.310;2022-09-14T06:04:24;16.70;99.90
46085;DHT22;31823;47.032;8.310;2022-09-14T06:06:50;16.70;99.90
46085;DHT22;31823;47.032;8.310;2022-09-14T06:09:15;16.70;99.90
46085;DHT22;31823;47.032;8.310;2022-09-14T06:11:41;16.80;99.90
46085;DHT22;31823;47.032;8.310;2022-09-14T06:14:07;16.80;99.90
46085;DHT22;31823;47.032;8.310;2022-09-14T06:16:33;16.90;99.90
46085;DHT22;31823;47.032;8.310;2022-09-14T06:18:59;16.90;99.90
46085;DHT22;31823;47.032;8.310;2022-09-14T06:21:30;17.00;99.90
46085;DHT22;31823;47.032;8.310;2022-09-14T06:23:57;17.00;99.90
46085;DHT22;31823;47.032;8.310;2022-09-14T06:26:23;17.00;99.90
46085;DHT22;31823;47.032;8.310;2022-09-14T06:28:48;17.00;99.90
46085;DHT22;31823;47.032;8.310;2022-09-14T06:31:14;17.00;99.90
46085;DHT22;31823;47.032;8.310;2022-09-14T06:33:43;17.00;99.90
46085;DHT22;31823;47.032;8.310;2022-09-14T06:36:13;17.00;99.90
46085;DHT22;31823;47.032;8.310;2022-09-14T06:38:40;17.10;99.90
46085;DHT22;31823;47.032;8.310;2022-09-14T06:41:08;17.20;99.90
46085;DHT22;31823;47.032;8.310;2022-09-14T06:43:36;17.20;99.90
46085;DHT22;31823;47.032;8.310;2022-09-14T06:48:45;17.40;99.90
46085;DHT22;31823;47.032;8.310;2022-09-14T06:53:51;17.50;99.90
46085;DHT22;31823;47.032;8.310;2022-09-14T06:56:18;17.50;99.90
46085;DHT22;31823;47.032;8.310;2022-09-14T06:58:44;17.60;99.90
46085;DHT22;31823;47.032;8.310;2022-09-14T07:01:15;17.60;99.90
46085;DHT22;31823;47.032;8.310;2022-09-14T07:03:41;17.60;99.90
46085;DHT22;31823;47.032;8.310;2022-09-14T07:06:19;17.60;99.90
46085;DHT22;31823;47.032;8.310;2022-09-14T07:08:46;17.70;99.90
46085;DHT22;31823;47.032;8.310;2022-09-14T07:11:13;17.70;99.90
46085;DHT22;31823;47.032;8.310;2022-09-14T07:13:39;17.90;99.90
46085;DHT22;31823;47.032;8.310;2022-09-14T07:16:05;17.90;99.90
46085;DHT22;31823;47.032;8.310;2022-09-14T07:18:32;18.00;99.90
46085;DHT22;31823;47.032;8.310;2022-09-14T07:23:31;17.90;99.90
46085;DHT22;31823;47.032;8.310;2022-09-14T07:26:05;18.00;99.90
46085;DHT22;31823;47.032;8.310;2022-09-14T07:28:32;18.10;99.90
46085;DHT22;31823;47.032;8.310;2022-09-14T07:30:58;18.20;99.90
46085;DHT22;31823;47.032;8.310;2022-09-14T07:33:24;18.40;99.90
46085;DHT22;31823;47.032;8.310;2022-09-14T07:35:50;18.40;99.90
46085;DHT22;31823;47.032;8.310;2022-09-14T07:38:17;18.40;99.90
46085;DHT22;31823;47.032;8.310;2022-09-14T07:40:43;18.40;99.90
46085;DHT22;31823;47.032;8.310;2022-09-14T07:43:08;18.30;99.90
46085;DHT22;31823;47.032;8.310;2022-09-14T07:45:35;18.40;99.90
46085;DHT22;31823;47.032;8.310;2022-09-14T07:48:01;18.50;99.90
46085;DHT22;31823;47.032;8.310;2022-09-14T07:50:26;18.80;99.90
46085;DHT22;31823;47.032;8.310;2022-09-14T07:52:52;19.10;99.90
46085;DHT22;31823;47.032;8.310;2022-09-14T07:55:18;18.70;99.90
46085;DHT22;31823;47.032;8.310;2022-09-14T07:57:44;18.50;99.90
46085;DHT22;31823;47.032;8.310;2022-09-14T08:00:11;18.60;99.90
46085;DHT22;31823;47.032;8.310;2022-09-14T08:02:38;18.80;99.90
46085;DHT22;31823;47.032;8.310;2022-09-14T08:05:05;18.70;99.90
46085;DHT22;31823;47.032;8.310;2022-09-14T08:07:30;18.70;99.90
46085;DHT22;31823;47.032;8.310;2022-09-14T08:09:56;18.90;99.90
46085;DHT22;31823;47.032;8.310;2022-09-14T08:12:22;19.20;99.90
46085;DHT22;31823;47.032;8.310;2022-09-14T08:14:48;19.50;99.90
46085;DHT22;31823;47.032;8.310;2022-09-14T08:17:15;19.90;99.90
46085;DHT22;31823;47.032;8.310;2022-09-14T08:19:41;19.60;99.90
46085;DHT22;31823;47.032;8.310;2022-09-14T08:22:07;19.60;99.90
46085;DHT22;31823;47.032;8.310;2022-09-14T08:24:32;19.60;99.90
46085;DHT22;31823;47.032;8.310;2022-09-14T08:26:58;19.60;99.90
46085;DHT22;31823;47.032;8.310;2022-09-14T08:29:24;19.70;99.90
46085;DHT22;31823;47.032;8.310;2022-09-14T08:31:50;19.60;99.90
46085;DHT22;31823;47.032;8.310;2022-09-14T08:34:17;19.60;99.90
46085;DHT22;31823;47.032;8.310;2022-09-14T08:36:45;19.60;99.90
46085;DHT22;31823;47.032;8.310;2022-09-14T08:39:12;19.60;99.90
46085;DHT22;31823;47.032;8.310;2022-09-14T08:41:47;19.70;99.90
46085;DHT22;31823;47.032;8.310;2022-09-14T08:44:25;20.00;99.90
46085;DHT22;31823;47.032;8.310;2022-09-14T08:46:57;19.80;99.90
46085;DHT22;31823;47.032;8.310;2022-09-14T08:54:57;19.80;99.90
46085;DHT22;31823;47.032;8.310;2022-09-14T08:57:30;19.90;99.90
46085;DHT22;31823;47.032;8.310;2022-09-14T09:02:53;20.00;99.90
46085;DHT22;31823;47.032;8.310;2022-09-14T09:05:31;20.20;99.90
46085;DHT22;31823;47.032;8.310;2022-09-14T09:08:02;20.20;99.90
46085;DHT22;31823;47.032;8.310;2022-09-14T09:10:31;20.20;99.90
46085;DHT22;31823;47.032;8.310;2022-09-14T09:12:59;20.20;99.90
46085;DHT22;31823;47.032;8.310;2022-09-14T09:17:56;20.30;99.90
46085;DHT22;31823;47.032;8.310;2022-09-14T09:20:34;20.50;99.90
46085;DHT22;31823;47.032;8.310;2022-09-14T09:28:31;20.30;99.90
46085;DHT22;31823;47.032;8.310;2022-09-14T09:31:02;20.70;99.90
46085;DHT22;31823;47.032;8.310;2022-09-14T09:33:30;21.00;99.90
46085;DHT22;31823;47.032;8.310;2022-09-14T09:35:56;21.10;99.90
46085;DHT22;31823;47.032;8.310;2022-09-14T09:38:24;21.20;99.90
46085;DHT22;31823;47.032;8.310;2022-09-14T09:43:34;21.10;99.90
46085;DHT22;31823;47.032;8.310;2022-09-14T09:46:02;21.10;99.90
46085;DHT22;31823;47.032;8.310;2022-09-14T09:51:47;20.80;99.90
46085;DHT22;31823;47.032;8.310;2022-09-14T09:56:39;20.20;99.90
46085;DHT22;31823;47.032;8.310;2022-09-14T10:01:54;20.30;99.90
46085;DHT22;31823;47.032;8.310;2022-09-14T10:04:26;20.50;99.90
46085;DHT22;31823;47.032;8.310;2022-09-14T10:06:55;20.50;99.90
46085;DHT22;31823;47.032;8.310;2022-09-14T10:09:27;20.50;99.90
46085;DHT22;31823;47.032;8.310;2022-09-14T10:11:58;20.30;99.90
46085;DHT22;31823;47.032;8.310;2022-09-14T10:14:28;20.30;99.90
46085;DHT22;31823;47.032;8.310;2022-09-14T10:19:33;20.20;99.90
46085;DHT22;31823;47.032;8.310;2022-09-14T10:24:32;20.20;99.90
46085;DHT22;31823;47.032;8.310;2022-09-14T10:26:58;20.20;99.90
46085;DHT22;31823;47.032;8.310;2022-09-14T10:29:38;20.10;99.90
46085;DHT22;31823;47.032;8.310;2022-09-14T10:32:18;20.20;99.90
46085;DHT22;31823;47.032;8.310;2022-09-14T10:34:44;20.20;99.90
46085;DHT22;31823;47.032;8.310;2022-09-14T10:37:38;20.00;99.90
46085;DHT22;31823;47.032;8.310;2022-09-14T10:40:18;20.10;99.90
46085;DHT22;31823;47.032;8.310;2022-09-14T10:43:02;20.00;99.90
46085;DHT22;31823;47.032;8.310;2022-09-14T10:45:33;20.00;99.90
46085;DHT22;31823;47.032;8.310;2022-09-14T10:55:42;20.00;99.90
46085;DHT22;31823;47.032;8.310;2022-09-14T11:01:12;20.30;99.90
46085;DHT22;31823;47.032;8.310;2022-09-14T11:09:21;19.70;99.90
46085;DHT22;31823;47.032;8.310;2022-09-14T11:12:01;19.90;99.90
46085;DHT22;31823;47.032;8.310;2022-09-14T11:18:01;19.70;99.90
46085;DHT22;31823;47.032;8.310;2022-09-14T11:28:27;19.70;99.90
46085;DHT22;31823;47.032;8.310;2022-09-14T11:31:05;19.70;99.90
46085;DHT22;31823;47.032;8.310;2022-09-14T11:33:44;19.70;99.90
46085;DHT22;31823;47.032;8.310;2022-09-14T11:36:43;19.90;99.90
46085;DHT22;31823;47.032;8.310;2022-09-14T11:39:19;20.00;99.90
46085;DHT22;31823;47.032;8.310;2022-09-14T11:41:48;20.00;99.90
46085;DHT22;31823;47.032;8.310;2022-09-14T11:46:55;19.80;99.90
46085;DHT22;31823;47.032;8.310;2022-09-14T11:52:20;20.10;99.90
46085;DHT22;31823;47.032;8.310;2022-09-14T11:54:47;20.10;99.90
46085;DHT22;31823;47.032;8.310;2022-09-14T11:57:23;19.90;99.90
46085;DHT22;31823;47.032;8.310;2022-09-14T11:59:52;19.80;99.90
46085;DHT22;31823;47.032;8.310;2022-09-14T12:12:39;20.00;99.90
46085;DHT22;31823;47.032;8.310;2022-09-14T12:23:13;19.90;99.90
46085;DHT22;31823;47.032;8.310;2022-09-14T12:36:06;20.20;99.90
46085;DHT22;31823;47.032;8.310;2022-09-14T12:59:42;21.20;99.90
46085;DHT22;31823;47.032;8.310;2022-09-14T13:04:46;21.50;99.90
46085;DHT22;31823;47.032;8.310;2022-09-14T13:07:16;22.20;99.90
46085;DHT22;31823;47.032;8.310;2022-09-14T13:09:48;22.00;99.90
46085;DHT22;31823;47.032;8.310;2022-09-14T13:12:42;22.20;99.90
46085;DHT22;31823;47.032;8.310;2022-09-14T13:15:35;22.10;99.90
46085;DHT22;31823;47.032;8.310;2022-09-14T13:18:24;21.70;99.90
46085;DHT22;31823;47.032;8.310;2022-09-14T13:20:55;21.80;99.90
46085;DHT22;31823;47.032;8.310;2022-09-14T13:23:26;22.10;99.90
46085;DHT22;31823;47.032;8.310;2022-09-14T13:25:52;22.40;99.90
46085;DHT22;31823;47.032;8.310;2022-09-14T13:28:19;22.00;99.90
46085;DHT22;31823;47.032;8.310;2022-09-14T13:30:56;21.50;99.90
46085;DHT22;31823;47.032;8.310;2022-09-14T13:33:22;21.50;99.90
46085;DHT22;31823;47.032;8.310;2022-09-14T13:35:53;21.30;99.90
46085;DHT22;31823;47.032;8.310;2022-09-14T13:38:31;21.30;99.90
46085;DHT22;31823;47.032;8.310;2022-09-14T13:41:14;21.20;99.90
46085;DHT22;31823;47.032;8.310;2022-09-14T13:43:42;21.40;99.90
46085;DHT22;31823;47.032;8.310;2022-09-14T13:46:09;22.00;99.90
46085;DHT22;31823;47.032;8.310;2022-09-14T13:48:39;22.00;99.90
46085;DHT22;31823;47.032;8.310;2022-09-14T13:51:06;22.70;99.90
46085;DHT22;31823;47.032;8.310;2022-09-14T13:53:48;22.50;99.90
46085;DHT22;31823;47.032;8.310;2022-09-14T13:58:41;23.50;99.90
46085;DHT22;31823;47.032;8.310;2022-09-14T14:01:06;23.20;99.90
46085;DHT22;31823;47.032;8.310;2022-09-14T14:03:38;22.10;99.90
46085;DHT22;31823;47.032;8.310;2022-09-14T14:11:29;23.10;99.90
46085;DHT22;31823;47.032;8.310;2022-09-14T14:13:55;23.30;99.90
46085;DHT22;31823;47.032;8.310;2022-09-14T14:16:24;23.70;99.90
46085;DHT22;31823;47.032;8.310;2022-09-14T14:18:54;23.20;99.90
46085;DHT22;31823;47.032;8.310;2022-09-14T14:26:50;24.20;99.90
46085;DHT22;31823;47.032;8.310;2022-09-14T14:29:17;24.40;99.90
46085;DHT22;31823;47.032;8.310;2022-09-14T14:31:43;24.00;99.90
46085;DHT22;31823;47.032;8.310;2022-09-14T14:34:29;24.20;99.90
46085;DHT22;31823;47.032;8.310;2022-09-14T14:36:55;23.50;99.90
46085;DHT22;31823;47.032;8.310;2022-09-14T14:39:23;23.30;99.90
46085;DHT22;31823;47.032;8.310;2022-09-14T14:41:49;23.20;99.90
46085;DHT22;31823;47.032;8.310;2022-09-14T14:44:19;22.50;99.90
46085;DHT22;31823;47.032;8.310;2022-09-14T14:46:45;21.80;99.90
46085;DHT22;31823;47.032;8.310;2022-09-14T14:49:12;21.80;99.90
46085;DHT22;31823;47.032;8.310;2022-09-14T14:51:39;21.60;99.90
46085;DHT22;31823;47.032;8.310;2022-09-14T14:54:06;22.00;99.90
46085;DHT22;31823;47.032;8.310;2022-09-14T14:56:32;22.00;99.90
46085;DHT22;31823;47.032;8.310;2022-09-14T14:58:57;21.70;99.90
46085;DHT22;31823;47.032;8.310;2022-09-14T15:01:23;21.60;99.90
46085;DHT22;31823;47.032;8.310;2022-09-14T15:03:48;21.80;99.90
46085;DHT22;31823;47.032;8.310;2022-09-14T15:06:19;21.70;99.90
46085;DHT22;31823;47.032;8.310;2022-09-14T15:08:45;21.70;99.90
46085;DHT22;31823;47.032;8.310;2022-09-14T15:11:15;21.70;99.90
46085;DHT22;31823;47.032;8.310;2022-09-14T15:13:43;21.60;99.90
46085;DHT22;31823;47.032;8.310;2022-09-14T15:16:08;21.50;99.90
46085;DHT22;31823;47.032;8.310;2022-09-14T15:18:34;21.20;99.90
46085;DHT22;31823;47.032;8.310;2022-09-14T15:21:00;21.10;99.90
46085;DHT22;31823;47.032;8.310;2022-09-14T15:23:26;20.90;99.90
46085;DHT22;31823;47.032;8.310;2022-09-14T15:25:51;21.00;99.90
46085;DHT22;31823;47.032;8.310;2022-09-14T15:28:17;21.00;99.90
46085;DHT22;31823;47.032;8.310;2022-09-14T15:30:43;20.80;99.90
46085;DHT22;31823;47.032;8.310;2022-09-14T15:33:09;20.80;99.90
46085;DHT22;31823;47.032;8.310;2022-09-14T15:35:34;20.90;99.90
46085;DHT22;31823;47.032;8.310;2022-09-14T15:38:00;20.90;99.90
46085;DHT22;31823;47.032;8.310;2022-09-14T15:40:26;20.70;99.90
46085;DHT22;31823;47.032;8.310;2022-09-14T15:42:52;20.60;99.90
46085;DHT22;31823;47.032;8.310;2022-09-14T15:45:17;20.70;99.90
46085;DHT22;31823;47.032;8.310;2022-09-14T15:47:43;20.60;99.90
46085;DHT22;31823;47.032;8.310;2022-09-14T15:50:11;20.60;99.90
46085;DHT22;31823;47.032;8.310;2022-09-14T15:52:38;20.60;99.90
46085;DHT22;31823;47.032;8.310;2022-09-14T15:55:08;20.60;99.90
46085;DHT22;31823;47.032;8.310;2022-09-14T15:57:35;20.70;99.90
46085;DHT22;31823;47.032;8.310;2022-09-14T16:00:03;20.50;99.90
46085;DHT22;31823;47.032;8.310;2022-09-14T16:02:29;20.70;99.90
46085;DHT22;31823;47.032;8.310;2022-09-14T16:04:56;20.70;99.90
46085;DHT22;31823;47.032;8.310;2022-09-14T16:07:22;20.70;99.90
46085;DHT22;31823;47.032;8.310;2022-09-14T16:09:48;20.50;99.90
46085;DHT22;31823;47.032;8.310;2022-09-14T16:12:14;20.40;99.90
46085;DHT22;31823;47.032;8.310;2022-09-14T16:14:39;20.50;99.90
46085;DHT22;31823;47.032;8.310;2022-09-14T16:17:06;20.60;99.90
46085;DHT22;31823;47.032;8.310;2022-09-14T16:19:33;20.70;99.90
46085;DHT22;31823;47.032;8.310;2022-09-14T16:21:59;21.00;99.90
46085;DHT22;31823;47.032;8.310;2022-09-14T16:24:25;21.30;99.90
46085;DHT22;31823;47.032;8.310;2022-09-14T16:26:52;21.30;99.90
46085;DHT22;31823;47.032;8.310;2022-09-14T16:29:19;21.30;99.90
46085;DHT22;31823;47.032;8.310;2022-09-14T16:31:46;20.90;99.90
46085;DHT22;31823;47.032;8.310;2022-09-14T16:34:25;20.70;99.90
46085;DHT22;31823;47.032;8.310;2022-09-14T16:36:51;20.50;99.90
46085;DHT22;31823;47.032;8.310;2022-09-14T16:39:19;20.40;99.90
46085;DHT22;31823;47.032;8.310;2022-09-14T16:41:47;20.30;99.90
46085;DHT22;31823;47.032;8.310;2022-09-14T16:44:17;20.10;99.90
46085;DHT22;31823;47.032;8.310;2022-09-14T16:46:44;19.90;99.90
46085;DHT22;31823;47.032;8.310;2022-09-14T16:49:10;19.80;99.90
46085;DHT22;31823;47.032;8.310;2022-09-14T16:51:36;19.70;99.90
46085;DHT22;31823;47.032;8.310;2022-09-14T16:54:02;19.70;99.90
46085;DHT22;31823;47.032;8.310;2022-09-14T16:56:31;19.70;99.90
46085;DHT22;31823;47.032;8.310;2022-09-14T16:58:57;19.60;99.90
46085;DHT22;31823;47.032;8.310;2022-09-14T17:01:29;19.60;99.90
46085;DHT22;31823;47.032;8.310;2022-09-14T17:03:58;19.60;99.90
46085;DHT22;31823;47.032;8.310;2022-09-14T17:06:27;19.50;99.90
46085;DHT22;31823;47.032;8.310;2022-09-14T17:08:55;19.50;99.90
46085;DHT22;31823;47.032;8.310;2022-09-14T17:11:21;19.40;99.90
46085;DHT22;31823;47.032;8.310;2022-09-14T17:13:48;19.40;99.90
46085;DHT22;31823;47.032;8.310;2022-09-14T17:16:19;19.30;99.90
46085;DHT22;31823;47.032;8.310;2022-09-14T17:18:47;19.20;99.90
46085;DHT22;31823;47.032;8.310;2022-09-14T17:21:24;19.20;99.90
46085;DHT22;31823;47.032;8.310;2022-09-14T17:23:50;19.20;99.90
46085;DHT22;31823;47.032;8.310;2022-09-14T17:26:17;19.20;99.90
46085;DHT22;31823;47.032;8.310;2022-09-14T17:28:43;19.10;99.90
46085;DHT22;31823;47.032;8.310;2022-09-14T17:31:11;19.10;99.90
46085;DHT22;31823;47.032;8.310;2022-09-14T17:33:37;19.20;99.90
46085;DHT22;31823;47.032;8.310;2022-09-14T17:36:04;19.10;99.90
46085;DHT22;31823;47.032;8.310;2022-09-14T17:38:35;19.00;99.90
46085;DHT22;31823;47.032;8.310;2022-09-14T17:41:03;18.90;99.90
46085;DHT22;31823;47.032;8.310;2022-09-14T17:43:30;18.90;99.90
46085;DHT22;31823;47.032;8.310;2022-09-14T17:45:57;18.90;99.90
46085;DHT22;31823;47.032;8.310;2022-09-14T17:48:23;18.80;99.90
46085;DHT22;31823;47.032;8.310;2022-09-14T17:50:49;18.80;99.90
46085;DHT22;31823;47.032;8.310;2022-09-14T17:53:15;18.80;99.90
46085;DHT22;31823;47.032;8.310;2022-09-14T17:55:41;18.90;99.90
46085;DHT22;31823;47.032;8.310;2022-09-14T17:58:07;18.80;99.90
46085;DHT22;31823;47.032;8.310;2022-09-14T18:00:33;18.80;99.90
46085;DHT22;31823;47.032;8.310;2022-09-14T18:02:58;18.70;99.90
46085;DHT22;31823;47.032;8.310;2022-09-14T18:05:24;18.70;99.90
46085;DHT22;31823;47.032;8.310;2022-09-14T18:07:50;18.70;99.90
46085;DHT22;31823;47.032;8.310;2022-09-14T18:10:16;18.70;99.90
46085;DHT22;31823;47.032;8.310;2022-09-14T18:12:46;18.70;99.90
46085;DHT22;31823;47.032;8.310;2022-09-14T18:15:13;18.60;99.90
46085;DHT22;31823;47.032;8.310;2022-09-14T18:17:41;18.50;99.90
46085;DHT22;31823;47.032;8.310;2022-09-14T18:20:08;18.60;99.90
46085;DHT22;31823;47.032;8.310;2022-09-14T18:22:34;18.70;99.90
46085;DHT22;31823;47.032;8.310;2022-09-14T18:25:00;18.70;99.90
46085;DHT22;31823;47.032;8.310;2022-09-14T18:27:26;18.60;99.90
46085;DHT22;31823;47.032;8.310;2022-09-14T18:29:51;18.50;99.90
46085;DHT22;31823;47.032;8.310;2022-09-14T18:32:17;18.40;99.90
46085;DHT22;31823;47.032;8.310;2022-09-14T18:34:42;18.40;99.90
46085;DHT22;31823;47.032;8.310;2022-09-14T18:37:08;18.40;99.90
46085;DHT22;31823;47.032;8.310;2022-09-14T18:39:33;18.60;99.90